sensor_id;sensor_type;location;lat;lon;timestamp;P1;durP1;ratioP1;P2;durP2;ratioP2
9392;SDS011;4736;52.508;13.422;2023-12-14T00:00:12;16.73;;;14.60;;
9392;SDS011;4736;52.508;13.422;2023-12-14T00:03:16;20.23;;;15.77;;
9392;SDS011;4736;52.508;13.422;2023-12-14T00:06:19;17.90;;;15.93;;
9392;SDS011;4736;52.508;13.422;2023-12-14T00:09:24;18.13;;;15.27;;
9392;SDS011;4736;52.508;13.422;2023-12-14T00:12:27;18.20;;;14.93;;
9392;SDS011;4736;52.508;13.422;2023-12-14T00:15:30;19.33;;;14.90;;
9392;SDS011;4736;52.508;13.422;2023-12-14T00:18:33;19.50;;;15.83;;
9392;SDS011;4736;52.508;13.422;2023-12-14T00:21:38;18.03;;;15.33;;
9392;SDS011;4736;52.508;13.422;2023-12-14T00:24:42;18.47;;;14.90;;
9392;SDS011;4736;52.508;13.422;2023-12-14T00:27:45;19.87;;;15.17;;
9392;SDS011;4736;52.508;13.422;2023-12-14T00:30:49;20.87;;;15.70;;
9392;SDS011;4736;52.508;13.422;2023-12-14T00:33:52;22.63;;;16.30;;
9392;SDS011;4736;52.508;13.422;2023-12-14T00:36:55;21.90;;;16.50;;
9392;SDS011;4736;52.508;13.422;2023-12-14T00:40:00;21.40;;;15.70;;
9392;SDS011;4736;52.508;13.422;2023-12-14T00:43:03;21.43;;;15.00;;
9392;SDS011;4736;52.508;13.422;2023-12-14T00:46:11;18.77;;;14.97;;
9392;SDS011;4736;52.508;13.422;2023-12-14T00:49:14;21.07;;;16.10;;
9392;SDS011;4736;52.508;13.422;2023-12-14T00:52:19;22.00;;;15.47;;
9392;SDS011;4736;52.508;13.422;2023-12-14T00:55:23;19.53;;;15.23;;
9392;SDS011;4736;52.508;13.422;2023-12-14T00:58:26;20.03;;;15.47;;
9392;SDS011;4736;52.508;13.422;2023-12-14T01:01:29;25.27;;;16.57;;
9392;SDS011;4736;52.508;13.422;2023-12-14T01:04:33;19.03;;;15.83;;
9392;SDS011;4736;52.508;13.422;2023-12-14T01:07:37;16.13;;;14.50;;
9392;SDS011;4736;52.508;13.422;2023-12-14T01:10:42;18.23;;;14.30;;
9392;SDS011;4736;52.508;13.422;2023-12-14T01:13:45;21.33;;;15.50;;
9392;SDS011;4736;52.508;13.422;2023-12-14T01:16:49;18.63;;;14.67;;
9392;SDS011;4736;52.508;13.422;2023-12-14T01:19:52;19.07;;;14.63;;
9392;SDS011;4736;52.508;13.422;2023-12-14T01:22:55;18.13;;;14.23;;
9392;SDS011;4736;52.508;13.422;2023-12-14T01:26:00;18.00;;;14.03;;
9392;SDS011;4736;52.508;13.422;2023-12-14T01:29:03;17.30;;;13.90;;
9392;SDS011;4736;52.508;13.422;2023-12-14T01:32:06;14.93;;;13.30;;
9392;SDS011;4736;52.508;13.422;2023-12-14T01:35:09;19.07;;;13.83;;
9392;SDS011;4736;52.508;13.422;2023-12-14T01:38:13;16.80;;;13.37;;
9392;SDS011;4736;52.508;13.422;2023-12-14T01:41:17;17.43;;;13.33;;
9392;SDS011;4736;52.508;13.422;2023-12-14T01:44:21;16.47;;;13.77;;
9392;SDS011;4736;52.508;13.422;2023-12-14T01:47:24;20.03;;;14.93;;
9392;SDS011;4736;52.508;13.422;2023-12-14T01:50:27;14.20;;;12.57;;
9392;SDS011;4736;52.508;13.422;2023-12-14T01:53:30;18.07;;;13.37;;
9392;SDS011;4736;52.508;13.422;2023-12-14T01:56:35;13.37;;;12.07;;
9392;SDS011;4736;52.508;13.422;2023-12-14T01:59:38;15.97;;;12.23;;
9392;SDS011;4736;52.508;13.422;2023-12-14T02:02:41;13.13;;;11.30;;
9392;SDS011;4736;52.508;13.422;2023-12-14T02:05:44;12.90;;;11.70;;
9392;SDS011;4736;52.508;13.422;2023-12-14T02:08:47;13.10;;;11.80;;
9392;SDS011;4736;52.508;13.422;2023-12-14T02:11:52;12.50;;;11.30;;
9392;SDS011;4736;52.508;13.422;2023-12-14T02:14:55;11.93;;;10.73;;
9392;SDS011;4736;52.508;13.422;2023-12-14T02:17:59;12.17;;;11.07;;
9392;SDS011;4736;52.508;13.422;2023-12-14T02:21:02;11.23;;;10.23;;
9392;SDS011;4736;52.508;13.422;2023-12-14T02:24:07;10.60;;;9.67;;
9392;SDS011;4736;52.508;13.422;2023-12-14T02:27:10;10.50;;;9.60;;
9392;SDS011;4736;52.508;13.422;2023-12-14T02:30:13;11.27;;;10.27;;
9392;SDS011;4736;52.508;13.422;2023-12-14T02:33:17;13.40;;;12.07;;
9392;SDS011;4736;52.508;13.422;2023-12-14T02:36:20;14.17;;;11.97;;
9392;SDS011;4736;52.508;13.422;2023-12-14T02:39:25;12.27;;;11.17;;
9392;SDS011;4736;52.508;13.422;2023-12-14T02:42:28;13.10;;;11.60;;
9392;SDS011;4736;52.508;13.422;2023-12-14T02:45:31;13.17;;;11.53;;
9392;SDS011;4736;52.508;13.422;2023-12-14T02:48:34;13.63;;;12.37;;
9392;SDS011;4736;52.508;13.422;2023-12-14T02:51:37;13.53;;;12.03;;
9392;SDS011;4736;52.508;13.422;2023-12-14T02:54:42;16.23;;;13.97;;
9392;SDS011;4736;52.508;13.422;2023-12-14T02:57:45;14.37;;;12.90;;
9392;SDS011;4736;52.508;13.422;2023-12-14T03:00:48;14.20;;;12.23;;
9392;SDS011;4736;52.508;13.422;2023-12-14T03:03:51;13.63;;;12.17;;
9392;SDS011;4736;52.508;13.422;2023-12-14T03:06:54;13.90;;;12.47;;
9392;SDS011;4736;52.508;13.422;2023-12-14T03:09:59;14.93;;;13.27;;
9392;SDS011;4736;52.508;13.422;2023-12-14T03:13:02;16.67;;;13.73;;
9392;SDS011;4736;52.508;13.422;2023-12-14T03:16:05;14.00;;;12.60;;
9392;SDS011;4736;52.508;13.422;2023-12-14T03:19:09;13.70;;;12.40;;
9392;SDS011;4736;52.508;13.422;2023-12-14T03:22:12;14.43;;;12.93;;
9392;SDS011;4736;52.508;13.422;2023-12-14T03:25:18;14.83;;;12.33;;
9392;SDS011;4736;52.508;13.422;2023-12-14T03:28:23;16.47;;;13.90;;
9392;SDS011;4736;52.508;13.422;2023-12-14T03:31:26;16.10;;;13.63;;
9392;SDS011;4736;52.508;13.422;2023-12-14T03:34:29;14.77;;;13.00;;
9392;SDS011;4736;52.508;13.422;2023-12-14T03:37:32;13.70;;;12.23;;
9392;SDS011;4736;52.508;13.422;2023-12-14T03:40:37;14.67;;;13.17;;
9392;SDS011;4736;52.508;13.422;2023-12-14T03:43:40;14.83;;;12.67;;
9392;SDS011;4736;52.508;13.422;2023-12-14T03:46:43;13.90;;;12.20;;
9392;SDS011;4736;52.508;13.422;2023-12-14T03:49:46;15.40;;;12.83;;
9392;SDS011;4736;52.508;13.422;2023-12-14T03:52:50;13.03;;;11.83;;
9392;SDS011;4736;52.508;13.422;2023-12-14T03:55:55;13.67;;;11.87;;
9392;SDS011;4736;52.508;13.422;2023-12-14T03:58:59;13.87;;;12.40;;
9392;SDS011;4736;52.508;13.422;2023-12-14T04:02:02;13.20;;;11.80;;
9392;SDS011;4736;52.508;13.422;2023-12-14T04:05:06;14.30;;;12.40;;
9392;SDS011;4736;52.508;13.422;2023-12-14T04:08:10;15.33;;;12.50;;
9392;SDS011;4736;52.508;13.422;2023-12-14T04:11:14;11.63;;;10.50;;
9392;SDS011;4736;52.508;13.422;2023-12-14T04:14:17;13.10;;;11.73;;
9392;SDS011;4736;52.508;13.422;2023-12-14T04:17:20;13.40;;;10.83;;
9392;SDS011;4736;52.508;13.422;2023-12-14T04:20:24;12.10;;;10.90;;
9392;SDS011;4736;52.508;13.422;2023-12-14T04:23:27;11.57;;;10.37;;
9392;SDS011;4736;52.508;13.422;2023-12-14T04:26:33;12.00;;;10.97;;
9392;SDS011;4736;52.508;13.422;2023-12-14T04:29:36;12.23;;;11.03;;
9392;SDS011;4736;52.508;13.422;2023-12-14T04:32:41;11.73;;;10.73;;
9392;SDS011;4736;52.508;13.422;2023-12-14T04:35:44;12.53;;;11.23;;
9392;SDS011;4736;52.508;13.422;2023-12-14T04:38:47;12.23;;;11.00;;
9392;SDS011;4736;52.508;13.422;2023-12-14T04:41:52;10.90;;;9.73;;
9392;SDS011;4736;52.508;13.422;2023-12-14T04:44:55;12.97;;;10.63;;
9392;SDS011;4736;52.508;13.422;2023-12-14T04:47:58;12.30;;;11.00;;
9392;SDS011;4736;52.508;13.422;2023-12-14T04:51:02;13.07;;;10.80;;
9392;SDS011;4736;52.508;13.422;2023-12-14T04:54:05;11.23;;;10.13;;
9392;SDS011;4736;52.508;13.422;2023-12-14T04:57:12;13.60;;;12.20;;
9392;SDS011;4736;52.508;13.422;2023-12-14T05:00:16;12.50;;;11.30;;
9392;SDS011;4736;52.508;13.422;2023-12-14T05:03:19;11.90;;;10.93;;
9392;SDS011;4736;52.508;13.422;2023-12-14T05:06:22;13.10;;;11.37;;
9392;SDS011;4736;52.508;13.422;2023-12-14T05:09:25;12.80;;;11.60;;
9392;SDS011;4736;52.508;13.422;2023-12-14T05:12:30;12.33;;;11.23;;
9392;SDS011;4736;52.508;13.422;2023-12-14T05:15:34;12.77;;;11.47;;
9392;SDS011;4736;52.508;13.422;2023-12-14T05:18:39;15.33;;;11.93;;
9392;SDS011;4736;52.508;13.422;2023-12-14T05:21:42;13.57;;;11.50;;
9392;SDS011;4736;52.508;13.422;2023-12-14T05:24:46;13.67;;;11.03;;
9392;SDS011;4736;52.508;13.422;2023-12-14T05:27:51;12.40;;;11.30;;
9392;SDS011;4736;52.508;13.422;2023-12-14T05:30:54;12.37;;;11.03;;
9392;SDS011;4736;52.508;13.422;2023-12-14T05:33:58;14.33;;;12.07;;
9392;SDS011;4736;52.508;13.422;2023-12-14T05:37:01;14.43;;;12.90;;
9392;SDS011;4736;52.508;13.422;2023-12-14T05:40:05;12.17;;;11.03;;
9392;SDS011;4736;52.508;13.422;2023-12-14T05:43:11;12.23;;;11.03;;
9392;SDS011;4736;52.508;13.422;2023-12-14T05:46:23;12.60;;;11.33;;
9392;SDS011;4736;52.508;13.422;2023-12-14T05:49:26;13.77;;;12.47;;
9392;SDS011;4736;52.508;13.422;2023-12-14T05:52:31;12.73;;;11.50;;
9392;SDS011;4736;52.508;13.422;2023-12-14T05:55:35;12.50;;;11.27;;
9392;SDS011;4736;52.508;13.422;2023-12-14T05:58:41;13.07;;;11.97;;
9392;SDS011;4736;52.508;13.422;2023-12-14T06:01:44;12.97;;;11.70;;
9392;SDS011;4736;52.508;13.422;2023-12-14T06:04:49;11.33;;;10.30;;
9392;SDS011;4736;52.508;13.422;2023-12-14T06:07:52;12.67;;;11.47;;
9392;SDS011;4736;52.508;13.422;2023-12-14T06:10:55;11.07;;;10.07;;
9392;SDS011;4736;52.508;13.422;2023-12-14T06:14:00;11.23;;;10.33;;
9392;SDS011;4736;52.508;13.422;2023-12-14T06:17:03;11.40;;;10.30;;
9392;SDS011;4736;52.508;13.422;2023-12-14T06:20:07;11.90;;;10.90;;
9392;SDS011;4736;52.508;13.422;2023-12-14T06:23:11;10.30;;;9.50;;
9392;SDS011;4736;52.508;13.422;2023-12-14T06:26:14;12.07;;;11.10;;
9392;SDS011;4736;52.508;13.422;2023-12-14T06:29:19;11.63;;;10.53;;
9392;SDS011;4736;52.508;13.422;2023-12-14T06:32:22;11.53;;;10.53;;
9392;SDS011;4736;52.508;13.422;2023-12-14T06:35:25;11.43;;;10.50;;
9392;SDS011;4736;52.508;13.422;2023-12-14T06:38:28;11.80;;;10.90;;
9392;SDS011;4736;52.508;13.422;2023-12-14T06:41:32;10.97;;;10.20;;
9392;SDS011;4736;52.508;13.422;2023-12-14T06:44:37;12.30;;;11.30;;
9392;SDS011;4736;52.508;13.422;2023-12-14T06:47:41;11.70;;;10.63;;
9392;SDS011;4736;52.508;13.422;2023-12-14T06:50:46;12.47;;;11.47;;
9392;SDS011;4736;52.508;13.422;2023-12-14T06:53:49;12.03;;;11.03;;
9392;SDS011;4736;52.508;13.422;2023-12-14T06:56:52;12.07;;;11.17;;
9392;SDS011;4736;52.508;13.422;2023-12-14T06:59:57;12.23;;;11.13;;
9392;SDS011;4736;52.508;13.422;2023-12-14T07:03:00;12.07;;;11.03;;
9392;SDS011;4736;52.508;13.422;2023-12-14T07:06:03;12.13;;;11.03;;
9392;SDS011;4736;52.508;13.422;2023-12-14T07:09:07;11.83;;;10.93;;
9392;SDS011;4736;52.508;13.422;2023-12-14T07:12:10;12.77;;;11.57;;
9392;SDS011;4736;52.508;13.422;2023-12-14T07:15:16;12.57;;;11.57;;
9392;SDS011;4736;52.508;13.422;2023-12-14T07:18:21;12.87;;;11.70;;
9392;SDS011;4736;52.508;13.422;2023-12-14T07:21:24;13.07;;;12.03;;
9392;SDS011;4736;52.508;13.422;2023-12-14T07:24:27;12.50;;;11.23;;
9392;SDS011;4736;52.508;13.422;2023-12-14T07:27:45;12.00;;;11.00;;
9392;SDS011;4736;52.508;13.422;2023-12-14T07:30:50;13.17;;;11.93;;
9392;SDS011;4736;52.508;13.422;2023-12-14T07:33:53;12.80;;;11.67;;
9392;SDS011;4736;52.508;13.422;2023-12-14T07:36:56;12.97;;;11.87;;
9392;SDS011;4736;52.508;13.422;2023-12-14T07:39:59;12.77;;;11.63;;
9392;SDS011;4736;52.508;13.422;2023-12-14T07:43:03;12.40;;;11.37;;
9392;SDS011;4736;52.508;13.422;2023-12-14T07:46:08;14.23;;;12.93;;
9392;SDS011;4736;52.508;13.422;2023-12-14T07:49:11;13.80;;;12.60;;
9392;SDS011;4736;52.508;13.422;2023-12-14T07:52:14;13.20;;;12.03;;
9392;SDS011;4736;52.508;13.422;2023-12-14T07:55:17;13.97;;;12.67;;
9392;SDS011;4736;52.508;13.422;2023-12-14T07:58:21;15.73;;;14.20;;
9392;SDS011;4736;52.508;13.422;2023-12-14T08:01:26;15.20;;;13.70;;
9392;SDS011;4736;52.508;13.422;2023-12-14T08:04:29;15.13;;;13.60;;
9392;SDS011;4736;52.508;13.422;2023-12-14T08:07:34;15.83;;;14.23;;
9392;SDS011;4736;52.508;13.422;2023-12-14T08:10:37;15.50;;;14.00;;
9392;SDS011;4736;52.508;13.422;2023-12-14T08:13:40;15.13;;;13.63;;
9392;SDS011;4736;52.508;13.422;2023-12-14T08:16:45;16.07;;;14.50;;
9392;SDS011;4736;52.508;13.422;2023-12-14T08:19:49;16.30;;;14.60;;
9392;SDS011;4736;52.508;13.422;2023-12-14T08:22:52;17.30;;;15.33;;
9392;SDS011;4736;52.508;13.422;2023-12-14T08:25:55;16.07;;;14.37;;
9392;SDS011;4736;52.508;13.422;2023-12-14T08:29:00;16.77;;;14.97;;
9392;SDS011;4736;52.508;13.422;2023-12-14T08:32:05;16.37;;;14.77;;
9392;SDS011;4736;52.508;13.422;2023-12-14T08:35:23;16.87;;;14.63;;
9392;SDS011;4736;52.508;13.422;2023-12-14T08:38:26;16.60;;;15.03;;
9392;SDS011;4736;52.508;13.422;2023-12-14T08:41:31;15.67;;;14.17;;
9392;SDS011;4736;52.508;13.422;2023-12-14T08:44:36;16.40;;;14.70;;
9392;SDS011;4736;52.508;13.422;2023-12-14T08:47:42;16.80;;;15.00;;
9392;SDS011;4736;52.508;13.422;2023-12-14T08:50:45;17.53;;;15.73;;
9392;SDS011;4736;52.508;13.422;2023-12-14T08:53:48;16.90;;;15.30;;
9392;SDS011;4736;52.508;13.422;2023-12-14T08:56:52;16.50;;;14.73;;
9392;SDS011;4736;52.508;13.422;2023-12-14T08:59:55;16.03;;;14.33;;
9392;SDS011;4736;52.508;13.422;2023-12-14T09:02:59;16.80;;;15.07;;
9392;SDS011;4736;52.508;13.422;2023-12-14T09:06:03;16.53;;;14.73;;
9392;SDS011;4736;52.508;13.422;2023-12-14T09:09:07;15.60;;;14.00;;
9392;SDS011;4736;52.508;13.422;2023-12-14T09:12:10;16.00;;;14.43;;
9392;SDS011;4736;52.508;13.422;2023-12-14T09:15:14;16.27;;;14.63;;
9392;SDS011;4736;52.508;13.422;2023-12-14T09:18:19;15.60;;;14.10;;
9392;SDS011;4736;52.508;13.422;2023-12-14T09:21:24;16.73;;;13.73;;
9392;SDS011;4736;52.508;13.422;2023-12-14T09:24:41;15.83;;;14.13;;
9392;SDS011;4736;52.508;13.422;2023-12-14T09:27:44;16.83;;;14.63;;
9392;SDS011;4736;52.508;13.422;2023-12-14T09:30:47;14.10;;;12.80;;
9392;SDS011;4736;52.508;13.422;2023-12-14T09:33:52;16.73;;;15.03;;
9392;SDS011;4736;52.508;13.422;2023-12-14T09:36:55;16.10;;;14.40;;
9392;SDS011;4736;52.508;13.422;2023-12-14T09:39:58;15.73;;;14.23;;
9392;SDS011;4736;52.508;13.422;2023-12-14T09:43:01;15.27;;;13.70;;
9392;SDS011;4736;52.508;13.422;2023-12-14T09:46:08;15.37;;;13.87;;
9392;SDS011;4736;52.508;13.422;2023-12-14T09:49:14;14.80;;;13.50;;
9392;SDS011;4736;52.508;13.422;2023-12-14T09:52:19;15.17;;;13.67;;
9392;SDS011;4736;52.508;13.422;2023-12-14T09:55:23;17.00;;;15.20;;
9392;SDS011;4736;52.508;13.422;2023-12-14T09:58:26;15.67;;;13.37;;
9392;SDS011;4736;52.508;13.422;2023-12-14T10:01:29;14.57;;;13.13;;
9392;SDS011;4736;52.508;13.422;2023-12-14T10:04:34;15.00;;;13.43;;
9392;SDS011;4736;52.508;13.422;2023-12-14T10:07:41;14.53;;;13.30;;
9392;SDS011;4736;52.508;13.422;2023-12-14T10:10:46;13.57;;;12.47;;
9392;SDS011;4736;52.508;13.422;2023-12-14T10:13:52;14.70;;;13.30;;
9392;SDS011;4736;52.508;13.422;2023-12-14T10:16:57;13.73;;;12.53;;
9392;SDS011;4736;52.508;13.422;2023-12-14T10:20:06;14.00;;;12.73;;
9392;SDS011;4736;52.508;13.422;2023-12-14T10:23:16;14.97;;;13.30;;
9392;SDS011;4736;52.508;13.422;2023-12-14T10:26:21;14.40;;;13.10;;
9392;SDS011;4736;52.508;13.422;2023-12-14T10:29:26;13.97;;;12.47;;
9392;SDS011;4736;52.508;13.422;2023-12-14T10:32:30;14.33;;;12.97;;
9392;SDS011;4736;52.508;13.422;2023-12-14T10:35:35;14.53;;;13.23;;
9392;SDS011;4736;52.508;13.422;2023-12-14T10:38:38;16.10;;;13.07;;
9392;SDS011;4736;52.508;13.422;2023-12-14T10:41:42;14.60;;;13.20;;
9392;SDS011;4736;52.508;13.422;2023-12-14T10:44:57;15.13;;;13.63;;
9392;SDS011;4736;52.508;13.422;2023-12-14T10:48:19;14.83;;;13.47;;
9392;SDS011;4736;52.508;13.422;2023-12-14T10:51:25;14.53;;;13.03;;
9392;SDS011;4736;52.508;13.422;2023-12-14T10:54:30;16.00;;;14.40;;
9392;SDS011;4736;52.508;13.422;2023-12-14T10:57:39;15.77;;;14.17;;
9392;SDS011;4736;52.508;13.422;2023-12-14T11:00:46;16.83;;;15.13;;
9392;SDS011;4736;52.508;13.422;2023-12-14T11:04:02;15.93;;;14.33;;
9392;SDS011;4736;52.508;13.422;2023-12-14T11:07:10;14.80;;;13.30;;
9392;SDS011;4736;52.508;13.422;2023-12-14T11:10:13;15.20;;;13.77;;
9392;SDS011;4736;52.508;13.422;2023-12-14T11:13:17;17.03;;;15.30;;
9392;SDS011;4736;52.508;13.422;2023-12-14T11:16:22;15.17;;;13.73;;
9392;SDS011;4736;52.508;13.422;2023-12-14T11:19:28;15.27;;;13.67;;
9392;SDS011;4736;52.508;13.422;2023-12-14T11:22:33;17.73;;;14.23;;
9392;SDS011;4736;52.508;13.422;2023-12-14T11:25:37;17.43;;;14.80;;
9392;SDS011;4736;52.508;13.422;2023-12-14T11:28:47;16.07;;;14.47;;
9392;SDS011;4736;52.508;13.422;2023-12-14T11:31:51;16.00;;;14.17;;
9392;SDS011;4736;52.508;13.422;2023-12-14T11:35:01;16.80;;;15.10;;
9392;SDS011;4736;52.508;13.422;2023-12-14T11:38:15;15.50;;;14.00;;
9392;SDS011;4736;52.508;13.422;2023-12-14T11:41:40;16.27;;;14.33;;
9392;SDS011;4736;52.508;13.422;2023-12-14T11:45:45;15.13;;;13.57;;
9392;SDS011;4736;52.508;13.422;2023-12-14T11:49:50;16.17;;;13.73;;
9392;SDS011;4736;52.508;13.422;2023-12-14T11:52:55;16.13;;;14.43;;
9392;SDS011;4736;52.508;13.422;2023-12-14T11:56:00;15.23;;;13.70;;
9392;SDS011;4736;52.508;13.422;2023-12-14T11:59:04;15.07;;;13.67;;
9392;SDS011;4736;52.508;13.422;2023-12-14T12:02:07;15.83;;;13.37;;
9392;SDS011;4736;52.508;13.422;2023-12-14T12:05:10;14.87;;;13.43;;
9392;SDS011;4736;52.508;13.422;2023-12-14T12:08:20;17.80;;;14.83;;
9392;SDS011;4736;52.508;13.422;2023-12-14T12:11:25;16.97;;;14.00;;
9392;SDS011;4736;52.508;13.422;2023-12-14T12:14:30;15.57;;;14.07;;
9392;SDS011;4736;52.508;13.422;2023-12-14T12:17:33;14.77;;;13.27;;
9392;SDS011;4736;52.508;13.422;2023-12-14T12:20:39;13.93;;;12.60;;
9392;SDS011;4736;52.508;13.422;2023-12-14T12:23:43;15.00;;;13.43;;
9392;SDS011;4736;52.508;13.422;2023-12-14T12:26:48;14.27;;;12.97;;
9392;SDS011;4736;52.508;13.422;2023-12-14T12:29:51;17.83;;;14.80;;
9392;SDS011;4736;52.508;13.422;2023-12-14T12:32:55;14.60;;;13.20;;
9392;SDS011;4736;52.508;13.422;2023-12-14T12:35:59;14.27;;;12.87;;
9392;SDS011;4736;52.508;13.422;2023-12-14T12:39:03;14.63;;;13.27;;
9392;SDS011;4736;52.508;13.422;2023-12-14T12:42:09;15.10;;;13.70;;
9392;SDS011;4736;52.508;13.422;2023-12-14T12:45:12;15.13;;;13.63;;
9392;SDS011;4736;52.508;13.422;2023-12-14T12:48:15;15.00;;;13.57;;
9392;SDS011;4736;52.508;13.422;2023-12-14T12:51:18;14.47;;;12.97;;
9392;SDS011;4736;52.508;13.422;2023-12-14T12:54:22;13.73;;;12.27;;
9392;SDS011;4736;52.508;13.422;2023-12-14T12:57:27;14.10;;;12.70;;
9392;SDS011;4736;52.508;13.422;2023-12-14T13:00:30;13.87;;;12.40;;
9392;SDS011;4736;52.508;13.422;2023-12-14T13:03:34;15.03;;;13.57;;
9392;SDS011;4736;52.508;13.422;2023-12-14T13:06:38;14.97;;;13.53;;
9392;SDS011;4736;52.508;13.422;2023-12-14T13:09:41;14.33;;;13.03;;
9392;SDS011;4736;52.508;13.422;2023-12-14T13:12:46;14.27;;;12.80;;
9392;SDS011;4736;52.508;13.422;2023-12-14T13:15:49;15.13;;;13.73;;
9392;SDS011;4736;52.508;13.422;2023-12-14T13:18:52;13.90;;;12.60;;
9392;SDS011;4736;52.508;13.422;2023-12-14T13:21:55;16.77;;;14.17;;
9392;SDS011;4736;52.508;13.422;2023-12-14T13:25:00;15.33;;;12.97;;
9392;SDS011;4736;52.508;13.422;2023-12-14T13:28:05;15.43;;;13.83;;
9392;SDS011;4736;52.508;13.422;2023-12-14T13:31:08;15.80;;;14.23;;
9392;SDS011;4736;52.508;13.422;2023-12-14T13:34:11;15.03;;;13.63;;
9392;SDS011;4736;52.508;13.422;2023-12-14T13:37:15;17.17;;;15.47;;
9392;SDS011;4736;52.508;13.422;2023-12-14T13:40:18;15.70;;;14.27;;
9392;SDS011;4736;52.508;13.422;2023-12-14T13:43:23;16.67;;;14.90;;
9392;SDS011;4736;52.508;13.422;2023-12-14T13:46:26;16.77;;;15.10;;
9392;SDS011;4736;52.508;13.422;2023-12-14T13:49:29;17.07;;;15.37;;
9392;SDS011;4736;52.508;13.422;2023-12-14T13:52:32;16.20;;;14.53;;
9392;SDS011;4736;52.508;13.422;2023-12-14T13:55:35;16.77;;;15.13;;
9392;SDS011;4736;52.508;13.422;2023-12-14T13:58:40;15.57;;;14.07;;
9392;SDS011;4736;52.508;13.422;2023-12-14T14:01:43;16.07;;;14.07;;
9392;SDS011;4736;52.508;13.422;2023-12-14T14:04:46;15.93;;;14.30;;
9392;SDS011;4736;52.508;13.422;2023-12-14T14:07:50;26.37;;;14.07;;
9392;SDS011;4736;52.508;13.422;2023-12-14T14:10:54;16.10;;;14.40;;
9392;SDS011;4736;52.508;13.422;2023-12-14T14:13:59;15.97;;;14.33;;
9392;SDS011;4736;52.508;13.422;2023-12-14T14:17:02;16.50;;;14.27;;
9392;SDS011;4736;52.508;13.422;2023-12-14T14:20:07;15.53;;;14.13;;
9392;SDS011;4736;52.508;13.422;2023-12-14T14:23:13;15.37;;;13.83;;
9392;SDS011;4736;52.508;13.422;2023-12-14T14:26:16;16.07;;;14.47;;
9392;SDS011;4736;52.508;13.422;2023-12-14T14:29:21;14.97;;;13.57;;
9392;SDS011;4736;52.508;13.422;2023-12-14T14:32:24;15.67;;;14.07;;
9392;SDS011;4736;52.508;13.422;2023-12-14T14:35:27;16.13;;;14.37;;
9392;SDS011;4736;52.508;13.422;2023-12-14T14:38:37;18.13;;;14.73;;
9392;SDS011;4736;52.508;13.422;2023-12-14T14:41:41;15.43;;;13.70;;
9392;SDS011;4736;52.508;13.422;2023-12-14T14:44:45;18.77;;;15.53;;
9392;SDS011;4736;52.508;13.422;2023-12-14T14:47:48;16.47;;;14.77;;
9392;SDS011;4736;52.508;13.422;2023-12-14T14:50:51;15.83;;;14.23;;
9392;SDS011;4736;52.508;13.422;2023-12-14T14:53:55;17.93;;;14.50;;
9392;SDS011;4736;52.508;13.422;2023-12-14T14:56:58;15.37;;;13.87;;
9392;SDS011;4736;52.508;13.422;2023-12-14T15:00:04;15.93;;;14.37;;
9392;SDS011;4736;52.508;13.422;2023-12-14T15:03:08;16.10;;;14.57;;
9392;SDS011;4736;52.508;13.422;2023-12-14T15:06:11;16.40;;;14.17;;
9392;SDS011;4736;52.508;13.422;2023-12-14T15:09:15;15.97;;;14.30;;
9392;SDS011;4736;52.508;13.422;2023-12-14T15:12:18;16.47;;;14.67;;
9392;SDS011;4736;52.508;13.422;2023-12-14T15:15:22;17.17;;;14.03;;
9392;SDS011;4736;52.508;13.422;2023-12-14T15:18:25;16.23;;;14.73;;
9392;SDS011;4736;52.508;13.422;2023-12-14T15:21:29;16.00;;;14.50;;
9392;SDS011;4736;52.508;13.422;2023-12-14T15:24:32;16.27;;;14.60;;
9392;SDS011;4736;52.508;13.422;2023-12-14T15:27:36;15.60;;;14.07;;
9392;SDS011;4736;52.508;13.422;2023-12-14T15:30:41;16.67;;;15.07;;
9392;SDS011;4736;52.508;13.422;2023-12-14T15:33:44;15.10;;;13.50;;
9392;SDS011;4736;52.508;13.422;2023-12-14T15:36:48;15.07;;;13.47;;
9392;SDS011;4736;52.508;13.422;2023-12-14T15:39:51;15.97;;;14.47;;
9392;SDS011;4736;52.508;13.422;2023-12-14T15:42:55;14.10;;;12.63;;
9392;SDS011;4736;52.508;13.422;2023-12-14T15:46:00;14.30;;;12.93;;
9392;SDS011;4736;52.508;13.422;2023-12-14T15:49:03;14.67;;;13.27;;
9392;SDS011;4736;52.508;13.422;2023-12-14T15:52:07;13.43;;;12.13;;
9392;SDS011;4736;52.508;13.422;2023-12-14T15:55:10;17.47;;;14.13;;
9392;SDS011;4736;52.508;13.422;2023-12-14T15:58:14;15.33;;;13.83;;
9392;SDS011;4736;52.508;13.422;2023-12-14T16:01:20;15.73;;;14.13;;
9392;SDS011;4736;52.508;13.422;2023-12-14T16:04:23;15.47;;;14.00;;
9392;SDS011;4736;52.508;13.422;2023-12-14T16:07:27;15.73;;;14.23;;
9392;SDS011;4736;52.508;13.422;2023-12-14T16:10:30;19.73;;;16.17;;
9392;SDS011;4736;52.508;13.422;2023-12-14T16:13:34;19.23;;;15.53;;
9392;SDS011;4736;52.508;13.422;2023-12-14T16:16:39;16.23;;;14.57;;
9392;SDS011;4736;52.508;13.422;2023-12-14T16:19:42;15.33;;;13.83;;
9392;SDS011;4736;52.508;13.422;2023-12-14T16:22:49;14.30;;;12.80;;
9392;SDS011;4736;52.508;13.422;2023-12-14T16:25:53;15.87;;;14.07;;
9392;SDS011;4736;52.508;13.422;2023-12-14T16:28:59;16.43;;;14.73;;
9392;SDS011;4736;52.508;13.422;2023-12-14T16:32:04;16.83;;;15.10;;
9392;SDS011;4736;52.508;13.422;2023-12-14T16:35:08;15.47;;;13.97;;
9392;SDS011;4736;52.508;13.422;2023-12-14T16:38:12;14.27;;;12.87;;
9392;SDS011;4736;52.508;13.422;2023-12-14T16:41:19;13.33;;;12.13;;
9392;SDS011;4736;52.508;13.422;2023-12-14T16:44:22;14.23;;;12.73;;
9392;SDS011;4736;52.508;13.422;2023-12-14T16:47:27;16.70;;;15.00;;
9392;SDS011;4736;52.508;13.422;2023-12-14T16:50:30;15.97;;;14.47;;
9392;SDS011;4736;52.508;13.422;2023-12-14T16:53:33;19.40;;;16.10;;
9392;SDS011;4736;52.508;13.422;2023-12-14T16:56:37;14.97;;;13.30;;
9392;SDS011;4736;52.508;13.422;2023-12-14T16:59:44;14.67;;;13.27;;
9392;SDS011;4736;52.508;13.422;2023-12-14T17:02:49;15.07;;;13.40;;
9392;SDS011;4736;52.508;13.422;2023-12-14T17:05:53;16.77;;;14.83;;
9392;SDS011;4736;52.508;13.422;2023-12-14T17:08:56;15.43;;;13.83;;
9392;SDS011;4736;52.508;13.422;2023-12-14T17:11:59;15.17;;;13.57;;
9392;SDS011;4736;52.508;13.422;2023-12-14T17:15:03;14.17;;;12.77;;
9392;SDS011;4736;52.508;13.422;2023-12-14T17:18:11;14.50;;;13.07;;
9392;SDS011;4736;52.508;13.422;2023-12-14T17:21:18;17.83;;;16.03;;
9392;SDS011;4736;52.508;13.422;2023-12-14T17:24:22;15.43;;;12.70;;
9392;SDS011;4736;52.508;13.422;2023-12-14T17:27:27;15.30;;;13.63;;
9392;SDS011;4736;52.508;13.422;2023-12-14T17:30:31;15.63;;;14.03;;
9392;SDS011;4736;52.508;13.422;2023-12-14T17:33:35;14.67;;;13.17;;
9392;SDS011;4736;52.508;13.422;2023-12-14T17:36:39;13.53;;;12.30;;
9392;SDS011;4736;52.508;13.422;2023-12-14T17:39:42;13.63;;;12.33;;
9392;SDS011;4736;52.508;13.422;2023-12-14T17:42:45;14.37;;;12.93;;
9392;SDS011;4736;52.508;13.422;2023-12-14T17:45:48;14.07;;;12.70;;
9392;SDS011;4736;52.508;13.422;2023-12-14T17:48:53;16.53;;;14.63;;
9392;SDS011;4736;52.508;13.422;2023-12-14T17:51:57;15.60;;;13.93;;
9392;SDS011;4736;52.508;13.422;2023-12-14T17:55:00;13.77;;;12.47;;
9392;SDS011;4736;52.508;13.422;2023-12-14T17:58:05;13.73;;;12.07;;
9392;SDS011;4736;52.508;13.422;2023-12-14T18:01:08;13.27;;;12.03;;
9392;SDS011;4736;52.508;13.422;2023-12-14T18:04:13;15.27;;;13.70;;
9392;SDS011;4736;52.508;13.422;2023-12-14T18:07:16;14.33;;;12.83;;
9392;SDS011;4736;52.508;13.422;2023-12-14T18:10:20;14.67;;;12.80;;
9392;SDS011;4736;52.508;13.422;2023-12-14T18:13:23;13.77;;;12.37;;
9392;SDS011;4736;52.508;13.422;2023-12-14T18:16:27;15.40;;;13.13;;